sensor_id;sensor_type;location;lat;lon;timestamp;pressure;altitude;pressure_sealevel;temperature;humidity
76847;BME280;65813;49.546;8.644;2023-05-10T03:47:45;100037.75;;;13.46;87.90
76847;BME280;65813;49.546;8.644;2023-05-10T03:51:46;100030.69;;;13.55;87.80
76847;BME280;65813;49.546;8.644;2023-05-10T03:55:46;100033.53;;;13.63;87.31
76847;BME280;65813;49.546;8.644;2023-05-10T03:59:46;100041.97;;;13.78;86.88
76847;BME280;65813;49.546;8.644;2023-05-10T04:03:47;100043.13;;;13.75;87.33
76847;BME280;65813;49.546;8.644;2023-05-10T04:07:47;100046.34;;;13.79;87.14
76847;BME280;65813;49.546;8.644;2023-05-10T04:11:49;100044.25;;;13.82;86.53
76847;BME280;65813;49.546;8.644;2023-05-10T04:15:49;100041.56;;;13.82;85.96
76847;BME280;65813;49.546;8.644;2023-05-10T04:19:49;100059.44;;;13.62;87.46
76847;BME280;65813;49.546;8.644;2023-05-10T04:23:53;100062.38;;;13.50;87.73
76847;BME280;65813;49.546;8.644;2023-05-10T04:27:53;100072.53;;;13.65;86.92
76847;BME280;65813;49.546;8.644;2023-05-10T04:31:54;100067.91;;;13.58;87.83
76847;BME280;65813;49.546;8.644;2023-05-10T04:35:55;100062.00;;;13.64;87.13
76847;BME280;65813;49.546;8.644;2023-05-10T04:39:55;100069.84;;;13.56;87.21
76847;BME280;65813;49.546;8.644;2023-05-10T04:43:56;100076.47;;;13.52;87.04
76847;BME280;65813;49.546;8.644;2023-05-10T04:47:56;100075.50;;;13.53;88.15
76847;BME280;65813;49.546;8.644;2023-05-10T04:51:56;100085.09;;;13.65;87.32
76847;BME280;65813;49.546;8.644;2023-05-10T04:55:56;100080.56;;;13.56;88.38
76847;BME280;65813;49.546;8.644;2023-05-10T04:59:57;100089.72;;;13.44;88.00
76847;BME280;65813;49.546;8.644;2023-05-10T05:03:57;100096.63;;;13.46;88.18
76847;BME280;65813;49.546;8.644;2023-05-10T05:07:57;100091.25;;;13.37;87.71
76847;BME280;65813;49.546;8.644;2023-05-10T05:11:58;100089.44;;;13.56;87.58
76847;BME280;65813;49.546;8.644;2023-05-10T05:16:03;100108.34;;;13.74;87.61
76847;BME280;65813;49.546;8.644;2023-05-10T05:20:04;100099.47;;;13.83;87.34
76847;BME280;65813;49.546;8.644;2023-05-10T05:24:04;100101.16;;;13.65;87.24
76847;BME280;65813;49.546;8.644;2023-05-10T05:28:05;100099.75;;;13.61;88.38
76847;BME280;65813;49.546;8.644;2023-05-10T05:32:05;100104.81;;;13.64;88.12
76847;BME280;65813;49.546;8.644;2023-05-10T05:36:08;100103.44;;;13.89;86.48
76847;BME280;65813;49.546;8.644;2023-05-10T05:40:12;100096.91;;;13.62;87.51
76847;BME280;65813;49.546;8.644;2023-05-10T05:44:13;100115.41;;;13.75;87.86
76847;BME280;65813;49.546;8.644;2023-05-10T05:48:13;100114.84;;;13.81;87.78
76847;BME280;65813;49.546;8.644;2023-05-10T05:52:13;100122.72;;;13.73;88.25
76847;BME280;65813;49.546;8.644;2023-05-10T05:56:14;100123.72;;;13.72;87.96
76847;BME280;65813;49.546;8.644;2023-05-10T06:00:14;100123.00;;;13.70;87.85
76847;BME280;65813;49.546;8.644;2023-05-10T06:04:15;100121.84;;;13.53;87.58
76847;BME280;65813;49.546;8.644;2023-05-10T06:08:16;100131.28;;;13.57;88.48
76847;BME280;65813;49.546;8.644;2023-05-10T06:12:16;100141.72;;;13.60;88.26
76847;BME280;65813;49.546;8.644;2023-05-10T06:16:16;100150.44;;;13.53;87.70
76847;BME280;65813;49.546;8.644;2023-05-10T06:20:17;100144.50;;;13.59;87.95
76847;BME280;65813;49.546;8.644;2023-05-10T06:24:18;100149.34;;;13.65;87.38
76847;BME280;65813;49.546;8.644;2023-05-10T06:28:18;100150.88;;;13.58;87.83
76847;BME280;65813;49.546;8.644;2023-05-10T06:32:18;100149.06;;;13.68;86.32
76847;BME280;65813;49.546;8.644;2023-05-10T06:36:19;100160.91;;;13.75;87.20
76847;BME280;65813;49.546;8.644;2023-05-10T06:40:19;100161.59;;;13.77;86.91
76847;BME280;65813;49.546;8.644;2023-05-10T06:44:19;100155.13;;;13.80;85.87
76847;BME280;65813;49.546;8.644;2023-05-10T06:48:20;100149.66;;;13.91;86.58
76847;BME280;65813;49.546;8.644;2023-05-10T06:52:20;100165.44;;;13.84;86.80
76847;BME280;65813;49.546;8.644;2023-05-10T06:56:20;100168.22;;;13.83;86.41
76847;BME280;65813;49.546;8.644;2023-05-10T07:00:21;100166.28;;;13.75;86.91
76847;BME280;65813;49.546;8.644;2023-05-10T07:04:22;100168.09;;;13.75;87.50
76847;BME280;65813;49.546;8.644;2023-05-10T07:08:22;100176.25;;;13.73;87.58
76847;BME280;65813;49.546;8.644;2023-05-10T07:12:23;100172.59;;;13.84;87.32
76847;BME280;65813;49.546;8.644;2023-05-10T07:16:23;100179.22;;;13.80;87.25
76847;BME280;65813;49.546;8.644;2023-05-10T07:20:23;100184.00;;;13.76;86.97
76847;BME280;65813;49.546;8.644;2023-05-10T07:24:24;100186.16;;;13.82;87.30
76847;BME280;65813;49.546;8.644;2023-05-10T07:28:24;100190.22;;;13.86;87.74
76847;BME280;65813;49.546;8.644;2023-05-10T07:32:24;100175.56;;;13.90;87.61
76847;BME280;65813;49.546;8.644;2023-05-10T07:36:25;100178.56;;;14.06;87.38
76847;BME280;65813;49.546;8.644;2023-05-10T07:40:25;100180.69;;;14.12;85.86
76847;BME280;65813;49.546;8.644;2023-05-10T07:44:25;100181.81;;;14.20;86.32
76847;BME280;65813;49.546;8.644;2023-05-10T07:48:26;100167.72;;;14.27;84.21
76847;BME280;65813;49.546;8.644;2023-05-10T07:52:26;100172.97;;;14.48;83.18
76847;BME280;65813;49.546;8.644;2023-05-10T07:56:28;100169.16;;;14.41;83.36
76847;BME280;65813;49.546;8.644;2023-05-10T08:00:29;100181.81;;;14.48;84.27
76847;BME280;65813;49.546;8.644;2023-05-10T08:04:30;100184.78;;;14.64;83.98
76847;BME280;65813;49.546;8.644;2023-05-10T08:08:30;100184.03;;;14.72;83.12
76847;BME280;65813;49.546;8.644;2023-05-10T08:12:30;100178.81;;;14.80;83.59
76847;BME280;65813;49.546;8.644;2023-05-10T08:16:30;100192.66;;;14.76;81.60
76847;BME280;65813;49.546;8.644;2023-05-10T08:20:32;100185.16;;;14.79;81.00
76847;BME280;65813;49.546;8.644;2023-05-10T08:24:32;100187.44;;;14.74;82.02
76847;BME280;65813;49.546;8.644;2023-05-10T08:28:35;100190.53;;;14.89;80.28
76847;BME280;65813;49.546;8.644;2023-05-10T08:32:36;100188.13;;;14.95;81.23
76847;BME280;65813;49.546;8.644;2023-05-10T08:36:37;100193.06;;;14.90;80.86
76847;BME280;65813;49.546;8.644;2023-05-10T08:40:41;100192.53;;;14.77;80.02
76847;BME280;65813;49.546;8.644;2023-05-10T08:44:42;100204.94;;;14.88;79.70
76847;BME280;65813;49.546;8.644;2023-05-10T08:48:46;100206.59;;;14.98;80.48
76847;BME280;65813;49.546;8.644;2023-05-10T08:52:48;100203.06;;;15.35;78.74
76847;BME280;65813;49.546;8.644;2023-05-10T08:56:51;100200.16;;;15.65;77.53
76847;BME280;65813;49.546;8.644;2023-05-10T09:00:53;100204.81;;;15.90;77.04
76847;BME280;65813;49.546;8.644;2023-05-10T09:04:53;100195.69;;;16.01;76.86
76847;BME280;65813;49.546;8.644;2023-05-10T09:08:54;100204.47;;;16.03;73.91
76847;BME280;65813;49.546;8.644;2023-05-10T09:12:56;100208.69;;;16.05;74.20
76847;BME280;65813;49.546;8.644;2023-05-10T09:16:57;100214.38;;;15.75;74.92
76847;BME280;65813;49.546;8.644;2023-05-10T09:20:58;100222.78;;;15.62;75.54
76847;BME280;65813;49.546;8.644;2023-05-10T09:25:09;100230.31;;;15.03;81.26
76847;BME280;65813;49.546;8.644;2023-05-10T09:29:11;100234.75;;;14.75;82.66
76847;BME280;65813;49.546;8.644;2023-05-10T09:33:11;100236.16;;;14.50;85.47
76847;BME280;65813;49.546;8.644;2023-05-10T09:37:11;100243.63;;;14.56;85.73
76847;BME280;65813;49.546;8.644;2023-05-10T09:41:22;100235.88;;;14.53;85.92
76847;BME280;65813;49.546;8.644;2023-05-10T09:45:24;100249.56;;;14.60;86.31
76847;BME280;65813;49.546;8.644;2023-05-10T09:49:25;100247.13;;;14.76;86.86
76847;BME280;65813;49.546;8.644;2023-05-10T09:53:25;100247.28;;;14.84;87.07
76847;BME280;65813;49.546;8.644;2023-05-10T09:57:26;100246.16;;;14.77;84.77
76847;BME280;65813;49.546;8.644;2023-05-10T10:01:26;100252.78;;;14.73;83.73
76847;BME280;65813;49.546;8.644;2023-05-10T10:05:34;100247.03;;;14.68;84.63
76847;BME280;65813;49.546;8.644;2023-05-10T10:09:35;100244.63;;;14.65;83.22
76847;BME280;65813;49.546;8.644;2023-05-10T10:13:36;100235.47;;;14.58;83.62
76847;BME280;65813;49.546;8.644;2023-05-10T10:17:37;100267.75;;;14.66;81.95
76847;BME280;65813;49.546;8.644;2023-05-10T10:21:39;100257.28;;;14.34;80.97
76847;BME280;65813;49.546;8.644;2023-05-10T10:25:39;100267.50;;;14.00;84.31
76847;BME280;65813;49.546;8.644;2023-05-10T10:34:06;100284.25;;;13.93;84.50
76847;BME280;65813;49.546;8.644;2023-05-10T10:38:08;100286.41;;;13.99;84.14
76847;BME280;65813;49.546;8.644;2023-05-10T10:42:08;100286.81;;;13.94;82.76
76847;BME280;65813;49.546;8.644;2023-05-10T10:46:18;100284.19;;;14.23;83.29
76847;BME280;65813;49.546;8.644;2023-05-10T10:50:19;100278.56;;;14.26;82.87
76847;BME280;65813;49.546;8.644;2023-05-10T10:54:27;100278.59;;;14.45;83.50
76847;BME280;65813;49.546;8.644;2023-05-10T10:58:29;100263.94;;;14.49;82.66
76847;BME280;65813;49.546;8.644;2023-05-10T11:06:42;100267.31;;;14.80;82.79
76847;BME280;65813;49.546;8.644;2023-05-10T11:14:59;100269.84;;;14.91;83.00
76847;BME280;65813;49.546;8.644;2023-05-10T11:19:05;100268.13;;;15.00;77.98
76847;BME280;65813;49.546;8.644;2023-05-10T11:23:14;100273.09;;;15.04;77.83
76847;BME280;65813;49.546;8.644;2023-05-10T11:27:15;100271.63;;;15.29;76.74
76847;BME280;65813;49.546;8.644;2023-05-10T11:31:17;100275.16;;;15.30;75.52
76847;BME280;65813;49.546;8.644;2023-05-10T11:35:18;100262.13;;;15.44;74.22
76847;BME280;65813;49.546;8.644;2023-05-10T11:39:19;100267.00;;;15.68;76.45
76847;BME280;65813;49.546;8.644;2023-05-10T11:43:23;100267.31;;;15.65;75.35
76847;BME280;65813;49.546;8.644;2023-05-10T11:47:23;100273.38;;;15.67;75.65
76847;BME280;65813;49.546;8.644;2023-05-10T11:51:24;100268.69;;;15.69;73.03
76847;BME280;65813;49.546;8.644;2023-05-10T11:55:25;100281.00;;;15.62;72.33
76847;BME280;65813;49.546;8.644;2023-05-10T11:59:25;100276.59;;;15.71;72.24
76847;BME280;65813;49.546;8.644;2023-05-10T12:03:27;100280.50;;;16.13;71.07
76847;BME280;65813;49.546;8.644;2023-05-10T12:07:28;100277.00;;;16.30;68.48
76847;BME280;65813;49.546;8.644;2023-05-10T12:11:28;100263.31;;;16.41;65.32
76847;BME280;65813;49.546;8.644;2023-05-10T12:15:28;100277.16;;;16.46;66.88
76847;BME280;65813;49.546;8.644;2023-05-10T12:19:36;100273.91;;;16.25;65.15
76847;BME280;65813;49.546;8.644;2023-05-10T12:23:38;100282.53;;;16.46;67.38
76847;BME280;65813;49.546;8.644;2023-05-10T12:27:39;100289.78;;;16.63;67.29
76847;BME280;65813;49.546;8.644;2023-05-10T12:31:50;100282.88;;;16.61;62.20
76847;BME280;65813;49.546;8.644;2023-05-10T12:35:54;100276.25;;;16.55;62.53
76847;BME280;65813;49.546;8.644;2023-05-10T12:39:54;100278.25;;;16.71;64.88
76847;BME280;65813;49.546;8.644;2023-05-10T12:43:55;100284.19;;;16.57;62.63
76847;BME280;65813;49.546;8.644;2023-05-10T12:47:55;100289.47;;;16.66;64.36
76847;BME280;65813;49.546;8.644;2023-05-10T12:51:55;100286.25;;;16.63;63.27
76847;BME280;65813;49.546;8.644;2023-05-10T12:55:56;100300.94;;;16.69;62.86
76847;BME280;65813;49.546;8.644;2023-05-10T12:59:56;100291.75;;;16.79;65.60
76847;BME280;65813;49.546;8.644;2023-05-10T13:03:57;100294.22;;;16.73;65.05
76847;BME280;65813;49.546;8.644;2023-05-10T13:07:57;100292.91;;;16.94;63.08
76847;BME280;65813;49.546;8.644;2023-05-10T13:11:57;100287.06;;;17.42;66.34
76847;BME280;65813;49.546;8.644;2023-05-10T13:16:00;100289.78;;;17.25;61.49
76847;BME280;65813;49.546;8.644;2023-05-10T13:20:01;100283.75;;;17.05;64.34
76847;BME280;65813;49.546;8.644;2023-05-10T13:24:01;100280.94;;;17.06;63.15
76847;BME280;65813;49.546;8.644;2023-05-10T13:28:01;100286.00;;;17.35;64.26
76847;BME280;65813;49.546;8.644;2023-05-10T13:32:02;100286.00;;;17.09;62.71
76847;BME280;65813;49.546;8.644;2023-05-10T13:36:02;100282.28;;;17.10;62.51
76847;BME280;65813;49.546;8.644;2023-05-10T13:40:03;100287.06;;;17.16;60.67
76847;BME280;65813;49.546;8.644;2023-05-10T13:44:04;100278.81;;;17.18;59.66
76847;BME280;65813;49.546;8.644;2023-05-10T13:48:05;100288.22;;;17.40;60.92
76847;BME280;65813;49.546;8.644;2023-05-10T13:52:05;100285.72;;;17.46;61.06
76847;BME280;65813;49.546;8.644;2023-05-10T13:56:07;100280.03;;;17.49;61.13
76847;BME280;65813;49.546;8.644;2023-05-10T14:00:07;100279.13;;;17.66;61.27
76847;BME280;65813;49.546;8.644;2023-05-10T14:04:08;100287.16;;;17.58;59.32
76847;BME280;65813;49.546;8.644;2023-05-10T14:08:11;100286.19;;;17.59;57.63
76847;BME280;65813;49.546;8.644;2023-05-10T14:12:13;100282.13;;;17.38;55.07
76847;BME280;65813;49.546;8.644;2023-05-10T14:16:14;100279.97;;;17.41;57.14
76847;BME280;65813;49.546;8.644;2023-05-10T14:20:15;100267.34;;;17.42;56.04
76847;BME280;65813;49.546;8.644;2023-05-10T14:24:15;100264.69;;;17.67;57.39
76847;BME280;65813;49.546;8.644;2023-05-10T14:28:15;100262.38;;;17.81;58.09
76847;BME280;65813;49.546;8.644;2023-05-10T14:32:17;100271.31;;;17.81;56.79
76847;BME280;65813;49.546;8.644;2023-05-10T14:36:18;100268.94;;;17.86;54.29
76847;BME280;65813;49.546;8.644;2023-05-10T14:40:18;100262.91;;;17.84;55.66
76847;BME280;65813;49.546;8.644;2023-05-10T14:44:18;100256.94;;;17.73;53.47
76847;BME280;65813;49.546;8.644;2023-05-10T14:48:19;100270.31;;;17.90;55.77
76847;BME280;65813;49.546;8.644;2023-05-10T14:52:21;100258.50;;;17.83;52.08
76847;BME280;65813;49.546;8.644;2023-05-10T14:56:21;100270.03;;;18.01;54.93
76847;BME280;65813;49.546;8.644;2023-05-10T15:00:22;100270.00;;;17.93;52.75
76847;BME280;65813;49.546;8.644;2023-05-10T15:04:22;100270.97;;;17.84;51.03
76847;BME280;65813;49.546;8.644;2023-05-10T15:08:23;100265.72;;;17.49;50.04
76847;BME280;65813;49.546;8.644;2023-05-10T15:12:24;100264.88;;;17.74;51.83
76847;BME280;65813;49.546;8.644;2023-05-10T15:16:24;100267.19;;;17.69;51.52
76847;BME280;65813;49.546;8.644;2023-05-10T15:20:25;100265.78;;;17.91;52.00
76847;BME280;65813;49.546;8.644;2023-05-10T15:24:25;100255.06;;;17.65;53.49
76847;BME280;65813;49.546;8.644;2023-05-10T15:28:26;100268.22;;;17.68;49.38
76847;BME280;65813;49.546;8.644;2023-05-10T15:32:26;100263.81;;;17.41;48.46
76847;BME280;65813;49.546;8.644;2023-05-10T15:36:27;100261.03;;;17.25;48.85
76847;BME280;65813;49.546;8.644;2023-05-10T15:40:27;100261.53;;;17.29;51.17
76847;BME280;65813;49.546;8.644;2023-05-10T15:44:28;100261.72;;;17.27;50.37
76847;BME280;65813;49.546;8.644;2023-05-10T15:48:28;100262.75;;;17.08;49.79
76847;BME280;65813;49.546;8.644;2023-05-10T15:52:31;100267.25;;;17.26;51.49
76847;BME280;65813;49.546;8.644;2023-05-10T15:56:31;100258.78;;;17.46;52.21
76847;BME280;65813;49.546;8.644;2023-05-10T16:00:32;100263.72;;;17.51;52.08
76847;BME280;65813;49.546;8.644;2023-05-10T16:04:33;100264.19;;;17.46;50.18
76847;BME280;65813;49.546;8.644;2023-05-10T16:08:33;100257.16;;;17.53;50.48
76847;BME280;65813;49.546;8.644;2023-05-10T16:12:38;100263.50;;;17.70;52.58
76847;BME280;65813;49.546;8.644;2023-05-10T16:16:38;100271.72;;;17.60;50.96
76847;BME280;65813;49.546;8.644;2023-05-10T16:20:39;100274.00;;;17.55;50.63
76847;BME280;65813;49.546;8.644;2023-05-10T16:24:39;100264.16;;;17.64;50.21
76847;BME280;65813;49.546;8.644;2023-05-10T16:28:40;100268.50;;;17.57;48.87
76847;BME280;65813;49.546;8.644;2023-05-10T16:32:40;100267.00;;;17.37;48.33
76847;BME280;65813;49.546;8.644;2023-05-10T16:36:41;100267.31;;;17.34;49.39
76847;BME280;65813;49.546;8.644;2023-05-10T16:40:41;100266.47;;;17.33;50.32
76847;BME280;65813;49.546;8.644;2023-05-10T16:44:41;100266.25;;;17.27;49.33
76847;BME280;65813;49.546;8.644;2023-05-10T16:48:42;100273.00;;;17.31;51.93
76847;BME280;65813;49.546;8.644;2023-05-10T16:52:42;100268.63;;;17.30;50.42
76847;BME280;65813;49.546;8.644;2023-05-10T16:56:42;100270.16;;;17.32;53.34
76847;BME280;65813;49.546;8.644;2023-05-10T17:00:43;100274.28;;;17.18;49.97
76847;BME280;65813;49.546;8.644;2023-05-10T17:04:43;100276.19;;;17.26;52.49
76847;BME280;65813;49.546;8.644;2023-05-10T17:08:43;100281.03;;;17.23;55.47
76847;BME280;65813;49.546;8.644;2023-05-10T17:12:44;100279.44;;;17.12;52.84
76847;BME280;65813;49.546;8.644;2023-05-10T17:16:44;100287.66;;;17.10;53.41
76847;BME280;65813;49.546;8.644;2023-05-10T17:20:45;100282.59;;;17.07;52.17
76847;BME280;65813;49.546;8.644;2023-05-10T17:24:45;100287.06;;;17.16;56.81
76847;BME280;65813;49.546;8.644;2023-05-10T17:28:46;100295.69;;;17.02;50.92
76847;BME280;65813;49.546;8.644;2023-05-10T17:32:46;100288.94;;;16.98;51.08
76847;BME280;65813;49.546;8.644;2023-05-10T17:36:46;100293.25;;;16.91;52.60
76847;BME280;65813;49.546;8.644;2023-05-10T17:40:46;100295.94;;;16.91;54.02
76847;BME280;65813;49.546;8.644;2023-05-10T17:44:47;100298.75;;;16.72;52.27
76847;BME280;65813;49.546;8.644;2023-05-10T17:48:47;100280.41;;;16.67;52.04
76847;BME280;65813;49.546;8.644;2023-05-10T17:52:47;100286.66;;;16.68;54.18
76847;BME280;65813;49.546;8.644;2023-05-10T17:56:48;100291.75;;;16.79;52.17
76847;BME280;65813;49.546;8.644;2023-05-10T18:00:48;100300.78;;;16.70;52.83
76847;BME280;65813;49.546;8.644;2023-05-10T18:04:48;100293.94;;;16.58;54.64
76847;BME280;65813;49.546;8.644;2023-05-10T18:08:49;100300.00;;;16.60;56.26
76847;BME280;65813;49.546;8.644;2023-05-10T18:12:49;100302.88;;;16.49;56.26
76847;BME280;65813;49.546;8.644;2023-05-10T18:16:50;100301.63;;;16.26;58.12
76847;BME280;65813;49.546;8.644;2023-05-10T18:20:51;100308.94;;;16.33;57.91
76847;BME280;65813;49.546;8.644;2023-05-10T18:24:55;100312.78;;;16.31;58.19
76847;BME280;65813;49.546;8.644;2023-05-10T18:28:56;100315.69;;;16.20;59.13
76847;BME280;65813;49.546;8.644;2023-05-10T18:32:56;100311.19;;;16.10;60.82
76847;BME280;65813;49.546;8.644;2023-05-10T18:36:57;100315.88;;;16.08;60.86
76847;BME280;65813;49.546;8.644;2023-05-10T18:40:57;100324.16;;;15.88;62.39
76847;BME280;65813;49.546;8.644;2023-05-10T18:44:57;100316.91;;;15.98;62.69
76847;BME280;65813;49.546;8.644;2023-05-10T18:48:58;100324.84;;;15.90;62.28
76847;BME280;65813;49.546;8.644;2023-05-10T18:52:58;100321.53;;;15.78;62.79
76847;BME280;65813;49.546;8.644;2023-05-10T18:56:58;100334.88;;;15.60;63.20
76847;BME280;65813;49.546;8.644;2023-05-10T19:00:59;100322.84;;;15.55;62.79
76847;BME280;65813;49.546;8.644;2023-05-10T19:04:59;100334.31;;;15.57;61.85
76847;BME280;65813;49.546;8.644;2023-05-10T19:09:00;100334.44;;;15.55;61.64
76847;BME280;65813;49.546;8.644;2023-05-10T19:13:00;100337.44;;;15.43;61.92
76847;BME280;65813;49.546;8.644;2023-05-10T19:17:00;100345.19;;;15.46;62.39
76847;BME280;65813;49.546;8.644;2023-05-10T19:21:01;100358.94;;;15.33;62.67
76847;BME280;65813;49.546;8.644;2023-05-10T19:25:03;100343.22;;;15.38;62.44
76847;BME280;65813;49.546;8.644;2023-05-10T19:29:04;100356.50;;;15.21;61.21
76847;BME280;65813;49.546;8.644;2023-05-10T19:33:05;100352.28;;;15.28;63.68
76847;BME280;65813;49.546;8.644;2023-05-10T19:37:05;100359.22;;;15.30;61.28
76847;BME280;65813;49.546;8.644;2023-05-10T19:41:06;100363.72;;;15.30;61.23
76847;BME280;65813;49.546;8.644;2023-05-10T19:45:07;100374.91;;;15.15;61.69
76847;BME280;65813;49.546;8.644;2023-05-10T19:49:07;100374.47;;;15.30;61.44
76847;BME280;65813;49.546;8.644;2023-05-10T19:53:08;100367.13;;;15.22;61.30
76847;BME280;65813;49.546;8.644;2023-05-10T19:57:08;100383.94;;;15.05;62.59
76847;BME280;65813;49.546;8.644;2023-05-10T20:01:08;100379.13;;;15.18;63.11
76847;BME280;65813;49.546;8.644;2023-05-10T20:05:09;100386.34;;;14.98;62.54
76847;BME280;65813;49.546;8.644;2023-05-10T20:09:09;100387.88;;;14.91;63.68
76847;BME280;65813;49.546;8.644;2023-05-10T20:13:09;100395.19;;;14.80;64.19
76847;BME280;65813;49.546;8.644;2023-05-10T20:17:10;100386.47;;;14.97;64.11
76847;BME280;65813;49.546;8.644;2023-05-10T20:21:10;100390.97;;;14.77;64.42
76847;BME280;65813;49.546;8.644;2023-05-10T20:25:11;100394.06;;;14.63;65.01
76847;BME280;65813;49.546;8.644;2023-05-10T20:29:12;100393.00;;;14.45;65.81
76847;BME280;65813;49.546;8.644;2023-05-10T20:33:12;100407.47;;;14.63;65.17
76847;BME280;65813;49.546;8.644;2023-05-10T20:37:14;100405.63;;;14.54;66.17
76847;BME280;65813;49.546;8.644;2023-05-10T20:41:16;100399.94;;;14.47;65.60
76847;BME280;65813;49.546;8.644;2023-05-10T20:45:17;100402.19;;;14.52;66.01
76847;BME280;65813;49.546;8.644;2023-05-10T20:49:17;100396.53;;;14.45;66.74
76847;BME280;65813;49.546;8.644;2023-05-10T20:53:18;100401.22;;;14.53;66.25
76847;BME280;65813;49.546;8.644;2023-05-10T20:57:19;100397.41;;;14.46;65.80
76847;BME280;65813;49.546;8.644;2023-05-10T21:01:19;100394.72;;;14.55;65.68
